createdAt,value
2022-08-19T00:00:23.098Z,22.52
2022-08-19T00:02:24.809Z,21.45
2022-08-19T00:04:30.895Z,21.92
2022-08-19T00:06:32.553Z,22.55
2022-08-19T00:08:34.161Z,22.90
2022-08-19T00:10:35.706Z,20.80
2022-08-19T00:12:47.020Z,22.40
2022-08-19T00:14:48.835Z,20.70
2022-08-19T00:16:52.486Z,22.30
2022-08-19T00:18:57.613Z,21.00
2022-08-19T00:21:00.430Z,24.75
2022-08-19T00:23:02.002Z,22.85
2022-08-19T00:25:04.299Z,26.02
2022-08-19T00:27:25.698Z,25.10
2022-08-19T00:29:28.039Z,20.55
2022-08-19T00:31:29.639Z,23.23
2022-08-19T00:33:33.474Z,22.38
2022-08-19T00:35:35.347Z,28.02
2022-08-19T00:37:37.031Z,28.70
2022-08-19T00:39:38.776Z,26.67
2022-08-19T00:41:41.048Z,24.23
2022-08-19T00:43:42.687Z,20.15
2022-08-19T00:45:44.714Z,20.52
2022-08-19T00:47:46.593Z,22.23
2022-08-19T00:49:52.775Z,24.25
2022-08-19T00:52:13.850Z,20.75
2022-08-19T00:54:15.818Z,18.83
2022-08-19T00:56:18.207Z,18.50
2022-08-19T00:58:21.905Z,24.13
2022-08-19T01:00:26.221Z,18.60
2022-08-19T01:02:28.779Z,20.05
2022-08-19T01:04:30.327Z,19.02
2022-08-19T01:06:33.567Z,20.48
2022-08-19T01:08:35.330Z,22.75
2022-08-19T01:10:46.671Z,18.52
2022-08-19T01:12:49.419Z,23.13
2022-08-19T01:14:51.353Z,20.10
2022-08-19T01:16:55.556Z,18.30
2022-08-19T01:18:57.672Z,21.42
2022-08-19T01:21:02.569Z,18.40
2022-08-19T01:23:04.444Z,19.95
2022-08-19T01:25:06.984Z,18.42
2022-08-19T01:27:16.941Z,17.95
2022-08-19T01:29:18.869Z,18.48
2022-08-19T01:31:27.342Z,20.65
2022-08-19T01:33:31.869Z,24.67
2022-08-19T01:35:33.620Z,22.30
2022-08-19T01:37:49.347Z,23.05
2022-08-19T01:39:51.291Z,19.20
2022-08-19T01:41:56.242Z,24.17
2022-08-19T01:44:13.697Z,23.98
2022-08-19T01:46:24.909Z,21.60
2022-08-19T01:48:26.659Z,22.70
2022-08-19T01:50:28.758Z,24.90
2022-08-19T01:52:30.323Z,20.80
2022-08-19T01:54:32.309Z,21.50
2022-08-19T01:56:33.873Z,21.35
2022-08-19T01:58:39.430Z,24.92
2022-08-19T02:00:41.702Z,23.55
2022-08-19T02:02:44.194Z,21.92
2022-08-19T02:04:46.903Z,20.77
2022-08-19T02:06:49.197Z,19.83
2022-08-19T02:08:50.958Z,19.75
2022-08-19T02:10:53.709Z,22.15
2022-08-19T02:12:55.307Z,19.83
2022-08-19T02:14:57.956Z,19.85
2022-08-19T02:16:59.541Z,22.88
2022-08-19T02:19:01.680Z,23.13
2022-08-19T02:21:03.444Z,21.02
2022-08-19T02:23:05.769Z,24.05
2022-08-19T02:25:15.827Z,21.65
2022-08-19T02:27:17.696Z,21.98
2022-08-19T02:29:19.251Z,20.02
2022-08-19T02:31:22.787Z,19.73
2022-08-19T02:33:28.036Z,23.45
2022-08-19T02:35:29.648Z,23.98
2022-08-19T02:37:49.970Z,22.98
2022-08-19T02:39:51.566Z,22.67
2022-08-19T02:41:53.377Z,24.50
2022-08-19T02:44:29.101Z,23.17
2022-08-19T02:46:22.954Z,26.63
2022-08-19T02:48:26.072Z,22.45
2022-08-19T02:50:27.726Z,27.33
2022-08-19T02:52:29.322Z,24.75
2022-08-19T02:54:30.889Z,25.98
2022-08-19T02:56:33.904Z,25.58
2022-08-19T02:58:35.484Z,27.73
2022-08-19T03:00:37.091Z,25.83
2022-08-19T03:02:43.815Z,27.77
2022-08-19T03:04:45.555Z,25.73
2022-08-19T03:06:47.776Z,24.33
2022-08-19T03:08:53.254Z,24.95
2022-08-19T03:10:55.027Z,23.52
2022-08-19T03:12:56.651Z,25.52
2022-08-19T03:14:58.369Z,24.90
2022-08-19T03:17:00.061Z,24.33
2022-08-19T03:19:02.793Z,25.15
2022-08-19T03:21:04.871Z,24.67
2022-08-19T03:23:06.618Z,25.67
2022-08-19T03:25:08.517Z,26.10
2022-08-19T03:27:10.090Z,27.30
2022-08-19T03:29:13.265Z,25.63
2022-08-19T03:31:41.471Z,23.38
2022-08-19T03:33:37.411Z,27.83
2022-08-19T03:35:39.056Z,25.92
2022-08-19T03:37:40.646Z,29.40
2022-08-19T03:39:43.256Z,29.63
2022-08-19T03:41:48.441Z,29.67
2022-08-19T03:43:50.975Z,25.95
2022-08-19T03:46:01.809Z,27.73
2022-08-19T03:48:03.662Z,27.25
2022-08-19T03:50:05.887Z,29.15
2022-08-19T03:52:08.618Z,33.00
2022-08-19T03:54:12.970Z,27.08
2022-08-19T03:56:15.396Z,27.50
2022-08-19T03:58:16.937Z,29.35
2022-08-19T04:00:18.981Z,26.80
2022-08-19T04:02:21.200Z,26.17
2022-08-19T04:04:22.945Z,28.25
2022-08-19T04:06:27.826Z,27.48
2022-08-19T04:08:29.413Z,30.77
2022-08-19T04:10:30.949Z,26.40
2022-08-19T04:12:33.040Z,26.65
2022-08-19T04:14:35.368Z,22.58
2022-08-19T04:16:37.011Z,23.98
2022-08-19T04:18:40.434Z,21.77
2022-08-19T04:20:46.859Z,24.33
2022-08-19T04:22:48.429Z,19.95
2022-08-19T04:24:49.960Z,23.30
2022-08-19T04:26:52.277Z,19.75
2022-08-19T04:28:55.364Z,21.60
2022-08-19T04:30:57.099Z,22.10
2022-08-19T04:32:58.777Z,20.67
2022-08-19T04:35:02.373Z,20.55
2022-08-19T04:37:19.346Z,23.07
2022-08-19T04:39:45.129Z,23.20
2022-08-19T04:42:06.013Z,21.58
2022-08-19T04:44:08.040Z,21.33
2022-08-19T04:46:11.910Z,20.35
2022-08-19T04:48:30.146Z,22.30
2022-08-19T04:50:31.685Z,23.65
2022-08-19T04:52:33.372Z,18.45
2022-08-19T04:54:38.669Z,21.80
2022-08-19T04:56:41.783Z,19.88
2022-08-19T04:58:45.038Z,17.92
2022-08-19T05:00:46.661Z,17.98
2022-08-19T05:02:49.309Z,17.65
2022-08-19T05:04:51.136Z,23.33
2022-08-19T05:06:53.316Z,17.48
2022-08-19T05:09:04.165Z,19.92
2022-08-19T05:11:14.843Z,19.88
2022-08-19T05:13:19.148Z,21.23
2022-08-19T05:15:20.687Z,24.30
2022-08-19T05:17:32.384Z,27.13
2022-08-19T05:19:55.190Z,20.85
2022-08-19T05:22:15.732Z,21.00
2022-08-19T05:24:18.299Z,23.70
2022-08-19T05:26:19.899Z,19.33
2022-08-19T05:28:21.842Z,20.80
2022-08-19T05:30:33.536Z,18.60
2022-08-19T05:32:44.240Z,22.73
2022-08-19T05:34:45.855Z,18.25
2022-08-19T05:36:47.425Z,15.98
2022-08-19T05:38:49.076Z,18.08
2022-08-19T05:40:50.612Z,17.40
2022-08-19T05:42:55.105Z,18.35
2022-08-19T05:44:57.724Z,17.38
2022-08-19T05:47:00.495Z,21.77
2022-08-19T05:49:02.130Z,18.10
2022-08-19T05:51:07.487Z,19.00
2022-08-19T05:53:09.942Z,14.98
2022-08-19T05:55:11.994Z,16.63
2022-08-19T05:57:13.579Z,16.55
2022-08-19T05:59:16.905Z,17.48
2022-08-19T06:01:21.022Z,15.70
2022-08-19T06:03:22.550Z,13.43
2022-08-19T06:05:24.143Z,15.98
2022-08-19T06:07:26.052Z,14.82
2022-08-19T06:09:27.708Z,13.85
2022-08-19T06:11:41.856Z,15.20
2022-08-19T06:13:44.536Z,17.00
2022-08-19T06:15:47.523Z,13.25
2022-08-19T06:17:49.110Z,14.32
2022-08-19T06:19:51.039Z,16.50
2022-08-19T06:21:53.370Z,14.20
2022-08-19T06:23:56.108Z,15.82
2022-08-19T06:25:57.989Z,14.23
2022-08-19T06:28:14.536Z,15.13
2022-08-19T06:30:17.135Z,13.27
2022-08-19T06:32:20.076Z,18.38
2022-08-19T06:34:21.865Z,14.05
2022-08-19T06:36:34.824Z,13.93
2022-08-19T06:38:36.415Z,16.23
2022-08-19T06:40:39.402Z,13.90
2022-08-19T06:42:44.406Z,14.35
2022-08-19T06:44:56.758Z,13.45
2022-08-19T06:46:59.339Z,19.20
2022-08-19T06:49:01.728Z,15.98
2022-08-19T06:51:04.771Z,13.55
2022-08-19T06:53:10.402Z,11.75
2022-08-19T06:55:11.946Z,12.73
2022-08-19T06:57:16.102Z,14.10
2022-08-19T06:59:21.607Z,13.95
2022-08-19T07:01:23.140Z,13.50
2022-08-19T07:03:24.695Z,13.02
2022-08-19T07:05:26.328Z,17.33
2022-08-19T07:07:27.996Z,17.00
2022-08-19T07:09:30.022Z,13.38
2022-08-19T07:11:33.586Z,12.65
2022-08-19T07:13:38.926Z,12.15
2022-08-19T07:15:40.555Z,13.63
2022-08-19T07:17:44.252Z,16.83
2022-08-19T07:19:46.212Z,14.18
2022-08-19T07:21:50.966Z,16.30
2022-08-19T07:23:52.894Z,13.07
2022-08-19T07:25:54.534Z,13.73
2022-08-19T07:27:56.345Z,13.88
2022-08-19T07:29:59.797Z,13.40
2022-08-19T07:32:02.572Z,12.45
2022-08-19T07:34:08.799Z,18.05
2022-08-19T07:36:13.457Z,14.98
2022-08-19T07:38:16.451Z,14.85
2022-08-19T07:40:17.980Z,14.88
2022-08-19T07:42:21.995Z,15.02
2022-08-19T07:44:24.203Z,10.65
2022-08-19T07:46:25.755Z,12.52
2022-08-19T07:48:29.394Z,13.10
2022-08-19T07:50:31.004Z,13.85
2022-08-19T07:52:32.656Z,11.88
2022-08-19T07:54:36.626Z,13.27
2022-08-19T07:56:38.720Z,12.35
2022-08-19T07:58:42.996Z,14.35
2022-08-19T08:00:46.157Z,14.65
2022-08-19T08:02:47.809Z,11.50
2022-08-19T08:05:09.882Z,11.55
2022-08-19T08:07:31.465Z,24.27
2022-08-19T08:09:39.331Z,12.48
2022-08-19T08:11:49.678Z,12.68
2022-08-19T08:14:00.932Z,11.05
2022-08-19T08:16:06.275Z,12.93
2022-08-19T08:18:12.805Z,12.52
2022-08-19T08:20:16.268Z,11.23
2022-08-19T08:22:39.050Z,13.75
2022-08-19T08:24:40.774Z,15.77
2022-08-19T08:26:46.748Z,12.75
2022-08-19T08:28:49.489Z,9.55
2022-08-19T08:30:51.898Z,11.52
2022-08-19T08:32:53.567Z,17.58
2022-08-19T08:34:55.182Z,18.08
2022-08-19T08:36:56.962Z,15.50
2022-08-19T08:41:15.231Z,13.88
2022-08-19T08:43:45.281Z,13.32
2022-08-19T08:45:54.609Z,11.57
2022-08-19T08:47:59.945Z,16.65
2022-08-19T08:50:13.396Z,12.05
2022-08-19T08:52:32.217Z,14.93
2022-08-19T08:54:48.628Z,12.70
2022-08-19T08:56:52.837Z,13.60
2022-08-19T08:59:04.835Z,11.48
2022-08-19T09:01:06.483Z,15.05
2022-08-19T09:03:20.262Z,14.18
2022-08-19T09:05:39.596Z,12.60
2022-08-19T09:08:12.037Z,19.35
2022-08-19T09:10:30.520Z,13.43
2022-08-19T09:13:09.707Z,12.75
2022-08-19T09:15:13.662Z,17.38
2022-08-19T09:17:16.100Z,10.32
2022-08-19T09:19:22.541Z,16.60
2022-08-19T09:21:30.549Z,10.63
2022-08-19T09:23:34.829Z,11.70
2022-08-19T09:25:37.548Z,16.52
2022-08-19T09:27:42.859Z,17.30
2022-08-19T09:29:45.300Z,12.70
2022-08-19T09:31:48.524Z,11.10
2022-08-19T09:33:52.335Z,17.95
2022-08-19T09:36:04.485Z,16.45
2022-08-19T09:38:10.244Z,11.30
2022-08-19T09:40:12.923Z,14.15
2022-08-19T09:42:16.167Z,15.60
2022-08-19T09:44:21.915Z,11.45
2022-08-19T09:46:25.996Z,13.88
2022-08-19T09:48:27.682Z,13.70
2022-08-19T09:50:29.266Z,14.93
2022-08-19T09:52:32.789Z,15.65
2022-08-19T09:54:35.335Z,12.38
2022-08-19T09:56:38.636Z,11.43
2022-08-19T09:58:44.047Z,11.55
2022-08-19T10:00:50.915Z,12.45
2022-08-19T10:02:53.342Z,13.38
2022-08-19T10:05:13.983Z,9.13
2022-08-19T10:07:29.012Z,15.48
2022-08-19T10:09:38.177Z,11.55
2022-08-19T10:11:49.862Z,10.82
2022-08-19T10:13:54.802Z,11.32
2022-08-19T10:15:58.185Z,12.50
2022-08-19T10:18:00.850Z,16.70
2022-08-19T10:20:05.134Z,9.30
2022-08-19T10:22:12.270Z,9.27
2022-08-19T10:24:13.942Z,12.27
2022-08-19T10:26:18.087Z,12.85
2022-08-19T10:28:20.698Z,11.57
2022-08-19T10:30:25.230Z,15.98
2022-08-19T10:32:34.381Z,12.85
2022-08-19T10:34:38.274Z,11.07
2022-08-19T10:36:53.809Z,11.60
2022-08-19T10:39:02.225Z,10.68
2022-08-19T10:41:15.537Z,14.43
2022-08-19T10:43:17.340Z,14.48
2022-08-19T10:45:19.065Z,12.75
2022-08-19T10:47:25.707Z,11.35
2022-08-19T10:49:28.280Z,14.93
2022-08-19T10:51:48.789Z,12.85
2022-08-19T10:53:52.090Z,11.70
2022-08-19T10:56:12.292Z,10.60
2022-08-19T10:58:16.603Z,13.73
2022-08-19T11:00:18.540Z,12.93
2022-08-19T11:02:20.083Z,17.58
2022-08-19T11:04:23.540Z,14.77
2022-08-19T11:08:35.939Z,10.25
2022-08-19T11:10:37.516Z,13.85
2022-08-19T11:12:42.266Z,16.42
2022-08-19T11:14:43.933Z,15.98
2022-08-19T11:16:45.518Z,12.23
2022-08-19T11:18:53.094Z,11.95
2022-08-19T11:20:54.696Z,11.50
2022-08-19T11:22:56.269Z,18.67
2022-08-19T11:24:57.947Z,20.10
2022-08-19T11:27:05.520Z,12.32
2022-08-19T11:29:12.263Z,11.90
2022-08-19T11:31:19.591Z,11.23
2022-08-19T11:33:21.191Z,11.15
2022-08-19T11:35:24.253Z,15.95
2022-08-19T11:37:25.895Z,22.80
2022-08-19T11:39:30.010Z,13.95
2022-08-19T11:41:31.640Z,10.88
2022-08-19T11:43:37.162Z,12.05
2022-08-19T11:45:39.147Z,20.80
2022-08-19T11:47:40.826Z,16.95
2022-08-19T11:49:43.346Z,13.05
2022-08-19T11:51:44.929Z,12.27
2022-08-19T11:53:46.937Z,9.43
2022-08-19T11:55:49.213Z,9.35
2022-08-19T11:57:50.901Z,10.30
2022-08-19T11:59:53.891Z,19.92
2022-08-19T12:01:56.746Z,12.55
2022-08-19T12:04:00.280Z,10.43
2022-08-19T12:06:09.566Z,15.95
2022-08-19T12:08:12.601Z,13.68
2022-08-19T12:10:14.275Z,15.15
2022-08-19T12:12:21.098Z,13.80
2022-08-19T12:14:22.666Z,18.52
2022-08-19T12:16:27.780Z,9.10
2022-08-19T12:18:30.249Z,16.27
2022-08-19T12:20:31.873Z,14.43
2022-08-19T12:22:38.323Z,9.73
2022-08-19T12:24:40.113Z,13.95
2022-08-19T12:26:52.982Z,12.23
2022-08-19T12:28:55.474Z,14.00
2022-08-19T12:30:57.469Z,17.85
2022-08-19T12:32:59.038Z,9.48
2022-08-19T12:35:00.627Z,9.82
2022-08-19T12:37:04.596Z,14.15
2022-08-19T12:39:07.605Z,15.55
2022-08-19T12:41:14.270Z,17.38
2022-08-19T12:43:20.821Z,11.35
2022-08-19T12:45:23.710Z,13.20
2022-08-19T12:47:27.481Z,16.85
2022-08-19T12:49:52.603Z,15.15
2022-08-19T12:51:53.231Z,14.90
2022-08-19T12:53:54.772Z,17.55
2022-08-19T12:56:00.833Z,11.75
2022-08-19T12:58:02.551Z,13.93
2022-08-19T13:00:09.226Z,16.67
2022-08-19T13:02:11.363Z,10.60
2022-08-19T13:04:12.980Z,10.73
2022-08-19T13:06:16.036Z,13.32
2022-08-19T13:08:21.160Z,10.35
2022-08-19T13:10:24.007Z,14.85
2022-08-19T13:12:27.609Z,16.65
2022-08-19T13:14:30.261Z,14.52
2022-08-19T13:16:32.034Z,12.65
2022-08-19T13:18:33.698Z,11.23
2022-08-19T13:20:36.468Z,17.17
2022-08-19T13:22:38.972Z,13.68
2022-08-19T13:24:45.099Z,12.60
2022-08-19T13:26:48.975Z,9.82
2022-08-19T13:29:17.250Z,18.63
2022-08-19T13:31:39.435Z,13.82
2022-08-19T13:33:41.032Z,17.77
2022-08-19T13:35:58.004Z,18.35
2022-08-19T13:37:59.615Z,13.15
2022-08-19T13:40:01.383Z,14.32
2022-08-19T13:42:05.256Z,16.67
2022-08-19T13:44:07.686Z,19.08
2022-08-19T13:46:14.973Z,11.40
2022-08-19T13:48:17.535Z,14.48
2022-08-19T13:50:22.531Z,9.38
2022-08-19T13:52:24.111Z,16.65
2022-08-19T13:54:25.890Z,13.73
2022-08-19T13:56:27.639Z,13.13
2022-08-19T13:58:29.450Z,13.68
2022-08-19T14:00:34.779Z,12.70
2022-08-19T14:02:36.564Z,19.35
2022-08-19T14:04:38.695Z,14.98
2022-08-19T14:06:40.220Z,16.40
2022-08-19T14:08:46.027Z,15.18
2022-08-19T14:10:49.358Z,11.98
2022-08-19T14:12:54.131Z,10.05
2022-08-19T14:14:56.079Z,11.95
2022-08-19T14:16:57.615Z,10.32
2022-08-19T14:18:59.226Z,9.02
2022-08-19T14:21:00.850Z,12.00
2022-08-19T14:23:02.881Z,15.68
2022-08-19T14:25:06.421Z,13.95
2022-08-19T14:27:08.080Z,17.20
2022-08-19T14:29:09.798Z,12.40
2022-08-19T14:31:12.868Z,14.88
2022-08-19T14:33:15.306Z,13.15
2022-08-19T14:35:17.310Z,11.82
2022-08-19T14:37:20.440Z,14.32
2022-08-19T14:39:22.646Z,15.40
2022-08-19T14:41:24.774Z,15.20
2022-08-19T14:43:26.369Z,11.07
2022-08-19T14:45:29.252Z,8.23
2022-08-19T14:47:30.887Z,12.25
2022-08-19T14:49:44.763Z,13.13
2022-08-19T14:51:50.443Z,13.93
2022-08-19T14:53:52.136Z,13.02
2022-08-19T14:55:53.734Z,15.88
2022-08-19T14:57:55.480Z,10.48
2022-08-19T15:00:00.107Z,17.33
2022-08-19T15:02:33.519Z,12.15
2022-08-19T15:04:23.314Z,19.55
2022-08-19T15:06:25.369Z,13.77
2022-08-19T15:08:27.976Z,13.30
2022-08-19T15:10:29.543Z,9.40
2022-08-19T15:12:31.494Z,13.77
2022-08-19T15:14:35.828Z,9.32
2022-08-19T15:16:39.013Z,13.75
2022-08-19T15:18:40.573Z,11.13
2022-08-19T15:20:42.249Z,11.57
2022-08-19T15:22:43.898Z,13.02
2022-08-19T15:24:48.136Z,13.48
2022-08-19T15:26:49.937Z,13.70
2022-08-19T15:28:51.530Z,11.48
2022-08-19T15:30:53.267Z,11.07
2022-08-19T15:32:55.915Z,15.50
2022-08-19T15:34:57.588Z,11.20
2022-08-19T15:37:00.175Z,12.30
2022-08-19T15:39:02.827Z,12.60
2022-08-19T15:41:23.850Z,14.27
2022-08-19T15:43:25.517Z,10.75
2022-08-19T15:45:32.991Z,17.38
2022-08-19T15:47:35.666Z,12.40
2022-08-19T15:49:37.436Z,15.43
2022-08-19T15:51:40.583Z,12.60
2022-08-19T15:53:42.926Z,14.68
2022-08-19T15:55:45.824Z,13.63
2022-08-19T15:58:05.850Z,12.63
2022-08-19T16:00:27.981Z,14.05
2022-08-19T16:02:48.355Z,12.68
2022-08-19T16:05:13.862Z,10.40
2022-08-19T16:07:15.478Z,13.38
2022-08-19T16:11:39.368Z,14.35
2022-08-19T16:13:42.234Z,13.05
2022-08-19T16:15:44.679Z,12.38
2022-08-19T16:17:56.722Z,14.60
2022-08-19T16:19:58.872Z,9.82
2022-08-19T16:22:00.468Z,10.63
2022-08-19T16:24:05.272Z,13.23
2022-08-19T16:26:06.845Z,12.13
2022-08-19T16:28:09.749Z,12.70
2022-08-19T16:30:11.876Z,9.13
2022-08-19T16:32:14.064Z,16.27
2022-08-19T16:34:15.765Z,15.57
2022-08-19T16:36:17.820Z,10.63
2022-08-19T16:38:19.796Z,17.00
2022-08-19T16:40:22.689Z,10.25
2022-08-19T16:42:24.401Z,15.30
2022-08-19T16:44:29.510Z,11.70
2022-08-19T16:46:31.751Z,11.93
2022-08-19T16:48:35.207Z,18.05
2022-08-19T16:50:49.155Z,11.43
2022-08-19T16:52:51.285Z,15.55
2022-08-19T16:54:53.491Z,19.08
2022-08-19T16:56:55.408Z,11.38
2022-08-19T16:58:58.339Z,14.82
2022-08-19T17:01:04.281Z,18.88
2022-08-19T17:03:14.697Z,21.75
2022-08-19T17:05:17.025Z,20.48
2022-08-19T17:07:19.688Z,17.52
2022-08-19T17:09:26.090Z,16.55
2022-08-19T17:11:29.405Z,15.52
2022-08-19T17:13:31.822Z,20.60
2022-08-19T17:15:33.700Z,18.17
2022-08-19T17:17:35.885Z,19.23
2022-08-19T17:19:38.009Z,23.83
2022-08-19T17:21:40.752Z,24.63
2022-08-19T17:23:43.929Z,18.42
2022-08-19T17:25:46.537Z,18.40
2022-08-19T17:27:48.138Z,19.08
2022-08-19T17:29:49.776Z,19.77
2022-08-19T17:31:51.439Z,19.58
2022-08-19T17:33:55.032Z,18.27
2022-08-19T17:35:56.810Z,21.00
2022-08-19T17:37:58.930Z,20.52
2022-08-19T17:40:02.743Z,16.52
2022-08-19T17:42:04.657Z,21.40
2022-08-19T17:44:07.448Z,21.85
2022-08-19T17:46:11.158Z,14.77
2022-08-19T17:48:13.577Z,14.55
2022-08-19T17:50:15.568Z,22.95
2022-08-19T17:52:17.292Z,16.30
2022-08-19T17:54:19.855Z,13.73
2022-08-19T17:56:21.845Z,22.35
2022-08-19T17:58:23.380Z,18.23
2022-08-19T18:00:25.099Z,18.85
2022-08-19T18:02:28.746Z,17.30
2022-08-19T18:04:31.494Z,17.08
2022-08-19T18:06:33.716Z,16.90
2022-08-19T18:08:39.220Z,19.17
2022-08-19T18:10:40.841Z,18.27
2022-08-19T18:12:44.273Z,19.23
2022-08-19T18:14:46.464Z,13.32
2022-08-19T18:16:48.070Z,13.00
2022-08-19T18:18:49.714Z,23.00
2022-08-19T18:20:52.220Z,40.50
2022-08-19T18:22:53.825Z,25.33
2022-08-19T18:24:57.182Z,30.45
2022-08-19T18:26:58.736Z,91.47
2022-08-19T18:29:00.342Z,19.67
2022-08-19T18:31:04.002Z,29.10
2022-08-19T18:33:13.748Z,23.08
2022-08-19T18:37:26.210Z,23.60
2022-08-19T18:39:46.173Z,16.10
2022-08-19T18:42:06.139Z,14.30
2022-08-19T18:44:28.422Z,25.38
2022-08-19T18:46:48.687Z,20.70
2022-08-19T18:49:05.352Z,29.27
2022-08-19T18:51:07.668Z,28.20
2022-08-19T18:53:10.097Z,19.90
2022-08-19T18:55:11.741Z,21.58
2022-08-19T18:57:14.514Z,19.92
2022-08-19T18:59:20.035Z,20.23
2022-08-19T19:01:27.474Z,27.90
2022-08-19T19:03:29.046Z,31.35
2022-08-19T19:05:30.613Z,29.00
2022-08-19T19:07:32.178Z,37.22
2022-08-19T19:09:34.319Z,42.75
2022-08-19T19:11:38.411Z,62.10
2022-08-19T19:13:41.100Z,45.78
2022-08-19T19:15:43.988Z,42.80
2022-08-19T19:17:46.570Z,30.77
2022-08-19T19:19:48.186Z,30.40
2022-08-19T19:21:49.842Z,20.65
2022-08-19T19:23:53.923Z,15.90
2022-08-19T19:25:55.649Z,22.15
2022-08-19T19:27:57.242Z,25.80
2022-08-19T19:29:58.869Z,19.40
2022-08-19T19:32:00.455Z,21.63
2022-08-19T19:34:02.026Z,19.17
2022-08-19T19:36:03.823Z,13.82
2022-08-19T19:38:05.464Z,19.20
2022-08-19T19:40:07.435Z,21.25
2022-08-19T19:42:19.666Z,18.40
2022-08-19T19:44:30.685Z,19.52
2022-08-19T19:46:33.508Z,20.17
2022-08-19T19:48:35.614Z,28.77
2022-08-19T19:50:37.212Z,14.35
2022-08-19T19:52:39.806Z,18.27
2022-08-19T19:54:41.793Z,17.13
2022-08-19T19:56:50.461Z,13.50
2022-08-19T19:58:53.507Z,15.93
2022-08-19T20:00:55.274Z,15.70
2022-08-19T20:02:56.879Z,14.82
2022-08-19T20:04:58.973Z,16.65
2022-08-19T20:07:00.540Z,16.67
2022-08-19T20:09:08.320Z,15.93
2022-08-19T20:11:10.264Z,18.65
2022-08-19T20:13:15.522Z,15.05
2022-08-19T20:15:17.269Z,15.57
2022-08-19T20:17:20.683Z,19.77
2022-08-19T20:19:26.206Z,15.73
2022-08-19T20:21:32.239Z,14.13
2022-08-19T20:23:34.761Z,17.50
2022-08-19T20:25:38.071Z,15.70
2022-08-19T20:27:40.383Z,17.50
2022-08-19T20:29:44.301Z,14.57
2022-08-19T20:31:59.140Z,19.08
2022-08-19T20:34:01.928Z,17.77
2022-08-19T20:36:04.896Z,17.08
2022-08-19T20:38:08.635Z,22.70
2022-08-19T20:40:11.491Z,17.45
2022-08-19T20:42:13.324Z,15.68
2022-08-19T20:44:15.235Z,16.65
2022-08-19T20:46:16.893Z,17.10
2022-08-19T20:48:18.444Z,19.77
2022-08-19T20:50:20.254Z,20.98
2022-08-19T20:52:21.873Z,19.17
2022-08-19T20:54:24.426Z,20.00
2022-08-19T20:56:27.618Z,17.25
2022-08-19T20:58:30.755Z,19.98
2022-08-19T21:00:32.366Z,19.98
2022-08-19T21:02:33.932Z,20.77
2022-08-19T21:04:35.533Z,19.02
2022-08-19T21:06:38.599Z,21.73
2022-08-19T21:08:43.854Z,20.98
2022-08-19T21:10:48.587Z,20.00
2022-08-19T21:12:50.214Z,20.88
2022-08-19T21:14:51.775Z,25.25
2022-08-19T21:16:54.088Z,18.00
2022-08-19T21:18:55.683Z,17.27
2022-08-19T21:20:57.450Z,20.13
2022-08-19T21:23:03.663Z,19.88
2022-08-19T21:25:06.606Z,18.77
2022-08-19T21:27:08.297Z,24.13
2022-08-19T21:29:09.860Z,19.83
2022-08-19T21:31:11.602Z,16.48
2022-08-19T21:33:13.272Z,18.55
2022-08-19T21:35:14.848Z,20.45
2022-08-19T21:37:25.797Z,19.05
2022-08-19T21:39:27.835Z,20.88
2022-08-19T21:41:29.396Z,15.55
2022-08-19T21:43:31.687Z,21.23
2022-08-19T21:45:33.516Z,19.70
2022-08-19T21:47:35.072Z,21.08
2022-08-19T21:49:36.823Z,18.05
2022-08-19T21:51:38.536Z,17.75
2022-08-19T21:53:40.180Z,17.30
2022-08-19T21:55:52.828Z,23.17
2022-08-19T21:59:57.337Z,18.02
2022-08-19T22:02:15.669Z,18.13
2022-08-19T22:04:20.629Z,21.20
2022-08-19T22:06:26.061Z,23.98
2022-08-19T22:08:27.669Z,19.35
2022-08-19T22:10:32.740Z,22.67
2022-08-19T22:12:36.491Z,27.02
2022-08-19T22:14:39.223Z,22.83
2022-08-19T22:16:40.989Z,24.13
2022-08-19T22:18:44.420Z,17.35
2022-08-19T22:20:46.471Z,20.23
2022-08-19T22:22:57.228Z,19.25
2022-08-19T22:25:12.772Z,26.40
2022-08-19T22:27:32.104Z,21.58
2022-08-19T22:29:34.365Z,22.67
2022-08-19T22:31:37.686Z,21.52
2022-08-19T22:33:39.592Z,19.73
2022-08-19T22:35:42.525Z,19.60
2022-08-19T22:37:44.144Z,26.05
2022-08-19T22:39:45.888Z,25.05
2022-08-19T22:41:47.544Z,22.98
2022-08-19T22:43:49.124Z,25.85
2022-08-19T22:45:52.700Z,21.90
2022-08-19T22:47:54.683Z,23.67
2022-08-19T22:49:56.406Z,21.38
2022-08-19T22:52:18.274Z,23.17
2022-08-19T22:54:19.906Z,21.45
2022-08-19T22:56:21.775Z,20.85
2022-08-19T22:58:28.055Z,21.75
2022-08-19T23:00:30.044Z,23.15
2022-08-19T23:02:38.580Z,20.35
2022-08-19T23:04:53.749Z,21.25
2022-08-19T23:06:55.281Z,21.50
2022-08-19T23:08:56.843Z,24.30
2022-08-19T23:10:58.539Z,17.48
2022-08-19T23:13:00.234Z,14.27
2022-08-19T23:15:04.652Z,12.02
2022-08-19T23:17:06.578Z,13.48
2022-08-19T23:19:08.197Z,15.00
2022-08-19T23:21:09.772Z,10.13
2022-08-19T23:23:14.042Z,14.73
2022-08-19T23:25:19.468Z,17.02
2022-08-19T23:27:39.553Z,11.05
2022-08-19T23:30:00.230Z,14.40
2022-08-19T23:32:02.985Z,9.63
2022-08-19T23:34:04.877Z,15.55
2022-08-19T23:36:09.335Z,14.18
2022-08-19T23:38:12.678Z,16.77
2022-08-19T23:40:16.957Z,20.75
2022-08-19T23:42:18.683Z,11.07
2022-08-19T23:44:20.230Z,13.27
2022-08-19T23:46:27.593Z,11.50
2022-08-19T23:48:33.363Z,11.98
2022-08-19T23:50:35.907Z,7.57
2022-08-19T23:52:49.285Z,12.65
2022-08-19T23:54:51.151Z,7.85
2022-08-19T23:56:53.888Z,20.75
2022-08-19T23:58:55.433Z,11.52
